Cahokia, IL

3:01 AM CST on November 22, 2014 (GMT -0600)
Millstadt | Change Station
CLOSE
Current Station
Personal Weather Station
Location: Millstadt, IL
Elevation: 620 ft
Nearby Weather Stations

Elev 620 ft 38.50 °N, 90.12 °W | Updated 20 seconds ago

Mostly Cloudy
Mostly Cloudy
41.0 °F
Feels Like 37 °F
N
5.8
Wind Variable Wind from South
Gusts 5.8 mph

Today
High -- | Low -- °F
--% Chance of Precip.
Yesterday
High -- | Low -- °F
Precip. -- in
6:50 AM 4:43 PM
Waning Crescent, 0% visible
Pressure 30.17 in
Visibility 10.0 miles
Clouds Mostly Cloudy 5500 ft
Mostly Cloudy 8000 ft
Windchill 37 °F
Dew Point 29 °F
Humidity 61%
Rainfall 0.00 in
Snow Depth Not available.
UV 0 out of 12
Pollen .40 out of 12
Air Quality Not available.
Flu Activity Not available.
METAR KCPS 220853Z AUTO 17006KT 10SM BKN055 BKN080 06/02 A3016 RMK AO2 SLP216 T00610017 56016 TSNO

More Conditions Fewer Conditions

Pressure 30.17 in
Visibility 10.0 miles
Clouds Mostly Cloudy 5500 ft
Mostly Cloudy 8000 ft
Windchill 37 °F
Dew Point 29 °F
Humidity 61%
Rainfall 0.00 in
Snow Depth Not available.
UV 0 out of 12
Pollen .40 out of 12
Air Quality Not available.
Flu Activity Not available.
METAR KCPS 220853Z AUTO 17006KT 10SM BKN055 BKN080 06/02 A3016 RMK AO2 SLP216 T00610017 56016 TSNO

More Conditions Fewer Conditions

10-Day Weather Forecast

Almanac

Astronomy

Nov. 22, 2014 Rise Set
Actual Time
Civil Twilight
Nautical Twilight
Astronomical Twilight
Moon
Length of Visible Light
Length of Day
Tomorrow will be .
, % of the Moon is Illuminated

Today's Extremes

State Highs State Lows

Community

WunderPhotos

Upload Photos

1,772,794 photos uploaded!

WunderBlogs® & News

Nearby

Air Quality

  Air Quality AQ Index Pollutant
Not available.

Snow Depth

Station Depth Elevation

Earthquake Activity

City Distance Mag. Time & Date
Minimum magnitude displayed is 2.5.

Coastal Water Temperatures

Place Temperature

Nearby Weather Stations